sensor_id;sensor_type;location;lat;lon;timestamp;temperature;humidity
12704;DHT22;6416;52.182;7.650;2024-03-02T00:01:18;10.60;70.00
12704;DHT22;6416;52.182;7.650;2024-03-02T00:03:43;10.60;70.00
12704;DHT22;6416;52.182;7.650;2024-03-02T00:06:09;10.60;70.10
12704;DHT22;6416;52.182;7.650;2024-03-02T00:08:34;10.60;70.20
12704;DHT22;6416;52.182;7.650;2024-03-02T00:11:00;10.50;70.20
12704;DHT22;6416;52.182;7.650;2024-03-02T00:13:26;10.50;70.30
12704;DHT22;6416;52.182;7.650;2024-03-02T00:15:55;10.50;70.30
12704;DHT22;6416;52.182;7.650;2024-03-02T00:20:46;10.50;70.40
12704;DHT22;6416;52.182;7.650;2024-03-02T00:23:14;10.50;70.40
12704;DHT22;6416;52.182;7.650;2024-03-02T00:25:49;10.50;70.40
12704;DHT22;6416;52.182;7.650;2024-03-02T00:28:22;10.50;70.50
12704;DHT22;6416;52.182;7.650;2024-03-02T00:33:22;10.40;70.40
12704;DHT22;6416;52.182;7.650;2024-03-02T00:35:48;10.40;70.50
12704;DHT22;6416;52.182;7.650;2024-03-02T00:38:13;10.40;70.60
12704;DHT22;6416;52.182;7.650;2024-03-02T00:40:39;10.40;70.50
12704;DHT22;6416;52.182;7.650;2024-03-02T00:43:04;10.40;70.70
12704;DHT22;6416;52.182;7.650;2024-03-02T00:45:30;10.30;70.60
12704;DHT22;6416;52.182;7.650;2024-03-02T00:47:55;10.30;70.70
12704;DHT22;6416;52.182;7.650;2024-03-02T00:50:21;10.30;70.70
12704;DHT22;6416;52.182;7.650;2024-03-02T00:52:46;10.30;70.80
12704;DHT22;6416;52.182;7.650;2024-03-02T00:55:11;10.30;70.80
12704;DHT22;6416;52.182;7.650;2024-03-02T00:57:37;10.20;70.70
12704;DHT22;6416;52.182;7.650;2024-03-02T01:00:03;10.20;70.80
12704;DHT22;6416;52.182;7.650;2024-03-02T01:02:28;10.20;70.80
12704;DHT22;6416;52.182;7.650;2024-03-02T01:04:54;10.20;70.80
12704;DHT22;6416;52.182;7.650;2024-03-02T01:07:19;10.20;71.00
12704;DHT22;6416;52.182;7.650;2024-03-02T01:09:44;10.20;71.00
12704;DHT22;6416;52.182;7.650;2024-03-02T01:12:10;10.20;71.20
12704;DHT22;6416;52.182;7.650;2024-03-02T01:14:35;10.20;71.20
12704;DHT22;6416;52.182;7.650;2024-03-02T01:17:01;10.20;71.20
12704;DHT22;6416;52.182;7.650;2024-03-02T01:19:26;10.10;71.20
12704;DHT22;6416;52.182;7.650;2024-03-02T01:21:52;10.10;71.20
12704;DHT22;6416;52.182;7.650;2024-03-02T01:24:17;10.10;71.20
12704;DHT22;6416;52.182;7.650;2024-03-02T01:26:42;10.10;71.20
12704;DHT22;6416;52.182;7.650;2024-03-02T01:29:08;10.10;71.30
12704;DHT22;6416;52.182;7.650;2024-03-02T01:31:33;10.10;71.20
12704;DHT22;6416;52.182;7.650;2024-03-02T01:33:58;10.10;71.20
12704;DHT22;6416;52.182;7.650;2024-03-02T01:36:24;10.10;71.30
12704;DHT22;6416;52.182;7.650;2024-03-02T01:38:49;10.10;71.30
12704;DHT22;6416;52.182;7.650;2024-03-02T01:41:15;10.10;71.30
12704;DHT22;6416;52.182;7.650;2024-03-02T01:43:40;10.10;71.40
12704;DHT22;6416;52.182;7.650;2024-03-02T01:46:06;10.10;71.40
12704;DHT22;6416;52.182;7.650;2024-03-02T01:48:31;10.10;71.40
12704;DHT22;6416;52.182;7.650;2024-03-02T01:50:56;10.10;71.40
12704;DHT22;6416;52.182;7.650;2024-03-02T01:53:22;10.00;71.50
12704;DHT22;6416;52.182;7.650;2024-03-02T01:55:47;10.00;71.60
12704;DHT22;6416;52.182;7.650;2024-03-02T01:58:13;10.00;71.60
12704;DHT22;6416;52.182;7.650;2024-03-02T02:00:38;10.00;71.60
12704;DHT22;6416;52.182;7.650;2024-03-02T02:03:04;10.00;71.60
12704;DHT22;6416;52.182;7.650;2024-03-02T02:05:29;10.00;71.50
12704;DHT22;6416;52.182;7.650;2024-03-02T02:07:54;10.00;71.50
12704;DHT22;6416;52.182;7.650;2024-03-02T02:10:20;10.00;71.60
12704;DHT22;6416;52.182;7.650;2024-03-02T02:12:45;9.90;72.60
12704;DHT22;6416;52.182;7.650;2024-03-02T02:15:24;9.90;72.60
12704;DHT22;6416;52.182;7.650;2024-03-02T02:17:49;9.90;72.70
12704;DHT22;6416;52.182;7.650;2024-03-02T02:20:15;9.90;72.80
12704;DHT22;6416;52.182;7.650;2024-03-02T02:22:40;9.90;72.90
12704;DHT22;6416;52.182;7.650;2024-03-02T02:25:05;9.90;73.00
12704;DHT22;6416;52.182;7.650;2024-03-02T02:27:31;9.90;73.00
12704;DHT22;6416;52.182;7.650;2024-03-02T02:29:56;9.80;73.00
12704;DHT22;6416;52.182;7.650;2024-03-02T02:32:22;9.80;73.10
12704;DHT22;6416;52.182;7.650;2024-03-02T02:34:51;9.80;73.10
12704;DHT22;6416;52.182;7.650;2024-03-02T02:37:17;9.80;73.20
12704;DHT22;6416;52.182;7.650;2024-03-02T02:39:42;9.80;73.20
12704;DHT22;6416;52.182;7.650;2024-03-02T02:42:08;9.80;73.30
12704;DHT22;6416;52.182;7.650;2024-03-02T02:44:34;9.80;73.30
12704;DHT22;6416;52.182;7.650;2024-03-02T02:46:59;9.80;73.30
12704;DHT22;6416;52.182;7.650;2024-03-02T02:49:25;9.80;73.30
12704;DHT22;6416;52.182;7.650;2024-03-02T02:51:50;9.80;73.40
12704;DHT22;6416;52.182;7.650;2024-03-02T02:54:15;9.80;73.50
12704;DHT22;6416;52.182;7.650;2024-03-02T02:56:41;9.80;73.50
12704;DHT22;6416;52.182;7.650;2024-03-02T02:59:06;9.80;73.70
12704;DHT22;6416;52.182;7.650;2024-03-02T03:01:31;9.80;73.60
12704;DHT22;6416;52.182;7.650;2024-03-02T03:03:57;9.80;73.60
12704;DHT22;6416;52.182;7.650;2024-03-02T03:06:22;9.80;73.50
12704;DHT22;6416;52.182;7.650;2024-03-02T03:08:48;9.80;73.50
12704;DHT22;6416;52.182;7.650;2024-03-02T03:11:13;9.80;73.50
12704;DHT22;6416;52.182;7.650;2024-03-02T03:13:38;9.80;74.40
12704;DHT22;6416;52.182;7.650;2024-03-02T03:16:04;9.80;73.60
12704;DHT22;6416;52.182;7.650;2024-03-02T03:18:29;9.80;73.70
12704;DHT22;6416;52.182;7.650;2024-03-02T03:20:55;9.80;73.70
12704;DHT22;6416;52.182;7.650;2024-03-02T03:23:20;9.80;73.70
12704;DHT22;6416;52.182;7.650;2024-03-02T03:25:45;9.80;73.60
12704;DHT22;6416;52.182;7.650;2024-03-02T03:28:11;9.80;73.70
12704;DHT22;6416;52.182;7.650;2024-03-02T03:30:37;9.70;73.70
12704;DHT22;6416;52.182;7.650;2024-03-02T03:33:02;9.70;73.70
12704;DHT22;6416;52.182;7.650;2024-03-02T03:35:27;9.70;73.80
12704;DHT22;6416;52.182;7.650;2024-03-02T03:37:53;9.70;73.80
12704;DHT22;6416;52.182;7.650;2024-03-02T03:40:18;9.70;74.00
12704;DHT22;6416;52.182;7.650;2024-03-02T03:42:44;9.70;73.90
12704;DHT22;6416;52.182;7.650;2024-03-02T03:45:09;9.70;74.00
12704;DHT22;6416;52.182;7.650;2024-03-02T03:47:35;9.70;73.90
12704;DHT22;6416;52.182;7.650;2024-03-02T03:50:00;9.70;74.00
12704;DHT22;6416;52.182;7.650;2024-03-02T03:52:25;9.70;74.10
12704;DHT22;6416;52.182;7.650;2024-03-02T03:54:51;9.70;74.10
12704;DHT22;6416;52.182;7.650;2024-03-02T03:57:16;9.70;74.10
12704;DHT22;6416;52.182;7.650;2024-03-02T03:59:42;9.70;74.20
12704;DHT22;6416;52.182;7.650;2024-03-02T04:02:08;9.70;74.30
12704;DHT22;6416;52.182;7.650;2024-03-02T04:04:33;9.70;74.20
12704;DHT22;6416;52.182;7.650;2024-03-02T04:06:59;9.70;74.20
12704;DHT22;6416;52.182;7.650;2024-03-02T04:09:24;9.70;74.20
12704;DHT22;6416;52.182;7.650;2024-03-02T04:11:49;9.70;74.40
12704;DHT22;6416;52.182;7.650;2024-03-02T04:14:15;9.70;74.30
12704;DHT22;6416;52.182;7.650;2024-03-02T04:16:40;9.70;74.40
12704;DHT22;6416;52.182;7.650;2024-03-02T04:19:06;9.70;74.50
12704;DHT22;6416;52.182;7.650;2024-03-02T04:21:31;9.70;74.30
12704;DHT22;6416;52.182;7.650;2024-03-02T04:23:56;9.70;74.40
12704;DHT22;6416;52.182;7.650;2024-03-02T04:26:22;9.70;74.50
12704;DHT22;6416;52.182;7.650;2024-03-02T04:28:47;9.70;74.60
12704;DHT22;6416;52.182;7.650;2024-03-02T04:31:13;9.60;74.50
12704;DHT22;6416;52.182;7.650;2024-03-02T04:33:39;9.70;74.70
12704;DHT22;6416;52.182;7.650;2024-03-02T04:36:05;9.70;74.60
12704;DHT22;6416;52.182;7.650;2024-03-02T04:38:30;9.70;74.70
12704;DHT22;6416;52.182;7.650;2024-03-02T04:40:56;9.70;74.70
12704;DHT22;6416;52.182;7.650;2024-03-02T04:43:21;9.70;74.70
12704;DHT22;6416;52.182;7.650;2024-03-02T04:45:46;9.70;74.70
12704;DHT22;6416;52.182;7.650;2024-03-02T04:48:12;9.70;74.70
12704;DHT22;6416;52.182;7.650;2024-03-02T04:50:37;9.70;74.70
12704;DHT22;6416;52.182;7.650;2024-03-02T04:53:03;9.70;74.70
12704;DHT22;6416;52.182;7.650;2024-03-02T04:55:28;9.60;74.70
12704;DHT22;6416;52.182;7.650;2024-03-02T04:57:53;9.60;74.70
12704;DHT22;6416;52.182;7.650;2024-03-02T05:00:19;9.60;74.70
12704;DHT22;6416;52.182;7.650;2024-03-02T05:02:44;9.60;74.70
12704;DHT22;6416;52.182;7.650;2024-03-02T05:05:10;9.60;74.70
12704;DHT22;6416;52.182;7.650;2024-03-02T05:07:35;9.60;74.70
12704;DHT22;6416;52.182;7.650;2024-03-02T05:10:00;9.60;74.90
12704;DHT22;6416;52.182;7.650;2024-03-02T05:12:26;9.60;74.90
12704;DHT22;6416;52.182;7.650;2024-03-02T05:14:51;9.50;74.80
12704;DHT22;6416;52.182;7.650;2024-03-02T05:17:17;9.50;74.80
12704;DHT22;6416;52.182;7.650;2024-03-02T05:19:42;9.50;74.80
12704;DHT22;6416;52.182;7.650;2024-03-02T05:22:07;9.50;74.90
12704;DHT22;6416;52.182;7.650;2024-03-02T05:24:33;9.50;74.90
12704;DHT22;6416;52.182;7.650;2024-03-02T05:26:58;9.50;74.90
12704;DHT22;6416;52.182;7.650;2024-03-02T05:29:24;9.50;74.90
12704;DHT22;6416;52.182;7.650;2024-03-02T05:31:49;9.50;75.00
12704;DHT22;6416;52.182;7.650;2024-03-02T05:34:14;9.50;75.10
12704;DHT22;6416;52.182;7.650;2024-03-02T05:36:40;9.50;75.00
12704;DHT22;6416;52.182;7.650;2024-03-02T05:39:05;9.50;75.00
12704;DHT22;6416;52.182;7.650;2024-03-02T05:41:31;9.50;75.00
12704;DHT22;6416;52.182;7.650;2024-03-02T05:43:56;9.40;75.00
12704;DHT22;6416;52.182;7.650;2024-03-02T05:46:21;9.40;75.00
12704;DHT22;6416;52.182;7.650;2024-03-02T05:48:47;9.40;75.20
12704;DHT22;6416;52.182;7.650;2024-03-02T05:51:12;9.40;75.20
12704;DHT22;6416;52.182;7.650;2024-03-02T05:53:38;9.40;75.20
12704;DHT22;6416;52.182;7.650;2024-03-02T05:56:03;9.40;75.20
12704;DHT22;6416;52.182;7.650;2024-03-02T05:58:29;9.40;75.20
12704;DHT22;6416;52.182;7.650;2024-03-02T06:00:54;9.40;75.30
12704;DHT22;6416;52.182;7.650;2024-03-02T06:03:20;9.40;75.40
12704;DHT22;6416;52.182;7.650;2024-03-02T06:05:45;9.40;75.40
12704;DHT22;6416;52.182;7.650;2024-03-02T06:08:10;9.40;75.50
12704;DHT22;6416;52.182;7.650;2024-03-02T06:10:36;9.40;75.60
12704;DHT22;6416;52.182;7.650;2024-03-02T06:13:01;9.40;75.60
12704;DHT22;6416;52.182;7.650;2024-03-02T06:15:27;9.40;75.80
12704;DHT22;6416;52.182;7.650;2024-03-02T06:17:52;9.40;75.80
12704;DHT22;6416;52.182;7.650;2024-03-02T06:20:17;9.40;75.80
12704;DHT22;6416;52.182;7.650;2024-03-02T06:22:43;9.40;75.70
12704;DHT22;6416;52.182;7.650;2024-03-02T06:25:08;9.50;75.90
12704;DHT22;6416;52.182;7.650;2024-03-02T06:27:34;9.50;75.90
12704;DHT22;6416;52.182;7.650;2024-03-02T06:29:59;9.50;75.90
12704;DHT22;6416;52.182;7.650;2024-03-02T06:32:24;9.50;75.90
12704;DHT22;6416;52.182;7.650;2024-03-02T06:34:50;9.50;75.90
12704;DHT22;6416;52.182;7.650;2024-03-02T06:37:16;9.50;76.00
12704;DHT22;6416;52.182;7.650;2024-03-02T06:39:41;9.60;76.10
12704;DHT22;6416;52.182;7.650;2024-03-02T06:42:07;9.60;76.20
12704;DHT22;6416;52.182;7.650;2024-03-02T06:44:32;9.60;76.10
12704;DHT22;6416;52.182;7.650;2024-03-02T06:46:57;9.60;76.20
12704;DHT22;6416;52.182;7.650;2024-03-02T06:49:23;9.70;76.20
12704;DHT22;6416;52.182;7.650;2024-03-02T06:51:48;9.70;75.90
12704;DHT22;6416;52.182;7.650;2024-03-02T06:54:14;9.70;76.10
12704;DHT22;6416;52.182;7.650;2024-03-02T06:56:39;9.70;76.30
12704;DHT22;6416;52.182;7.650;2024-03-02T06:59:04;9.80;76.50
12704;DHT22;6416;52.182;7.650;2024-03-02T07:01:30;9.80;76.40
12704;DHT22;6416;52.182;7.650;2024-03-02T07:03:55;9.90;76.60
12704;DHT22;6416;52.182;7.650;2024-03-02T07:06:21;9.90;76.50
12704;DHT22;6416;52.182;7.650;2024-03-02T07:08:46;10.00;75.70
12704;DHT22;6416;52.182;7.650;2024-03-02T07:11:11;10.00;75.80
12704;DHT22;6416;52.182;7.650;2024-03-02T07:13:37;10.10;75.90
12704;DHT22;6416;52.182;7.650;2024-03-02T07:16:02;10.20;76.10
12704;DHT22;6416;52.182;7.650;2024-03-02T07:18:28;10.20;75.90
12704;DHT22;6416;52.182;7.650;2024-03-02T07:20:54;10.30;76.50
12704;DHT22;6416;52.182;7.650;2024-03-02T07:23:19;10.50;77.00
12704;DHT22;6416;52.182;7.650;2024-03-02T07:25:45;10.60;77.10
12704;DHT22;6416;52.182;7.650;2024-03-02T07:28:10;10.70;77.50
12704;DHT22;6416;52.182;7.650;2024-03-02T07:30:35;10.80;77.30
12704;DHT22;6416;52.182;7.650;2024-03-02T07:33:01;10.90;77.20
12704;DHT22;6416;52.182;7.650;2024-03-02T07:35:26;11.10;77.90
12704;DHT22;6416;52.182;7.650;2024-03-02T07:37:52;11.30;78.00
12704;DHT22;6416;52.182;7.650;2024-03-02T07:40:17;11.50;78.30
12704;DHT22;6416;52.182;7.650;2024-03-02T07:42:42;11.80;79.70
12704;DHT22;6416;52.182;7.650;2024-03-02T07:45:08;12.10;79.70
12704;DHT22;6416;52.182;7.650;2024-03-02T07:47:34;12.40;79.60
12704;DHT22;6416;52.182;7.650;2024-03-02T07:49:59;12.70;78.80
12704;DHT22;6416;52.182;7.650;2024-03-02T07:52:25;13.10;78.10
12704;DHT22;6416;52.182;7.650;2024-03-02T07:54:50;13.40;78.80
12704;DHT22;6416;52.182;7.650;2024-03-02T07:57:16;13.70;77.30
12704;DHT22;6416;52.182;7.650;2024-03-02T07:59:41;14.00;79.00
12704;DHT22;6416;52.182;7.650;2024-03-02T08:02:07;14.30;77.90
12704;DHT22;6416;52.182;7.650;2024-03-02T08:04:32;14.60;76.80
12704;DHT22;6416;52.182;7.650;2024-03-02T08:06:58;14.80;77.60
12704;DHT22;6416;52.182;7.650;2024-03-02T08:09:23;15.10;74.90
12704;DHT22;6416;52.182;7.650;2024-03-02T08:11:48;15.40;75.50
12704;DHT22;6416;52.182;7.650;2024-03-02T08:14:14;15.60;77.50
12704;DHT22;6416;52.182;7.650;2024-03-02T08:16:39;15.80;75.50
12704;DHT22;6416;52.182;7.650;2024-03-02T08:19:05;16.00;76.90
12704;DHT22;6416;52.182;7.650;2024-03-02T08:21:30;16.30;78.20
12704;DHT22;6416;52.182;7.650;2024-03-02T08:23:56;16.50;76.00
12704;DHT22;6416;52.182;7.650;2024-03-02T08:26:22;16.80;76.90
12704;DHT22;6416;52.182;7.650;2024-03-02T08:28:47;17.10;75.90
12704;DHT22;6416;52.182;7.650;2024-03-02T08:31:13;17.30;71.80
12704;DHT22;6416;52.182;7.650;2024-03-02T08:33:38;17.50;73.50
12704;DHT22;6416;52.182;7.650;2024-03-02T08:36:04;17.80;76.00
12704;DHT22;6416;52.182;7.650;2024-03-02T08:38:30;18.00;73.10
12704;DHT22;6416;52.182;7.650;2024-03-02T08:40:55;18.30;74.30
12704;DHT22;6416;52.182;7.650;2024-03-02T08:43:21;18.50;71.80
12704;DHT22;6416;52.182;7.650;2024-03-02T08:45:46;18.70;67.40
12704;DHT22;6416;52.182;7.650;2024-03-02T08:48:12;18.80;69.00
12704;DHT22;6416;52.182;7.650;2024-03-02T08:50:37;19.00;72.00
12704;DHT22;6416;52.182;7.650;2024-03-02T08:53:03;19.20;70.70
12704;DHT22;6416;52.182;7.650;2024-03-02T08:55:29;19.40;66.00
12704;DHT22;6416;52.182;7.650;2024-03-02T08:57:54;19.60;69.50
12704;DHT22;6416;52.182;7.650;2024-03-02T09:00:20;19.70;68.40
12704;DHT22;6416;52.182;7.650;2024-03-02T09:02:46;19.90;67.40
12704;DHT22;6416;52.182;7.650;2024-03-02T09:05:11;20.10;64.90
12704;DHT22;6416;52.182;7.650;2024-03-02T09:07:37;20.20;64.80
12704;DHT22;6416;52.182;7.650;2024-03-02T09:10:02;20.40;64.80
12704;DHT22;6416;52.182;7.650;2024-03-02T09:12:27;20.50;61.90
12704;DHT22;6416;52.182;7.650;2024-03-02T09:14:53;20.70;62.50
12704;DHT22;6416;52.182;7.650;2024-03-02T09:17:18;20.80;59.90
12704;DHT22;6416;52.182;7.650;2024-03-02T09:19:44;20.90;61.90
12704;DHT22;6416;52.182;7.650;2024-03-02T09:22:09;21.00;61.00
12704;DHT22;6416;52.182;7.650;2024-03-02T09:24:34;21.10;60.50
12704;DHT22;6416;52.182;7.650;2024-03-02T09:27:00;21.20;59.10
12704;DHT22;6416;52.182;7.650;2024-03-02T09:29:25;21.30;60.50
12704;DHT22;6416;52.182;7.650;2024-03-02T09:31:51;21.50;57.70
12704;DHT22;6416;52.182;7.650;2024-03-02T09:34:17;21.60;60.20
12704;DHT22;6416;52.182;7.650;2024-03-02T09:36:42;21.80;61.80
12704;DHT22;6416;52.182;7.650;2024-03-02T09:39:08;22.00;59.80
12704;DHT22;6416;52.182;7.650;2024-03-02T09:41:33;22.10;57.00
12704;DHT22;6416;52.182;7.650;2024-03-02T09:43:59;22.30;57.40
12704;DHT22;6416;52.182;7.650;2024-03-02T09:46:25;22.40;59.30
12704;DHT22;6416;52.182;7.650;2024-03-02T09:48:50;22.50;55.30
12704;DHT22;6416;52.182;7.650;2024-03-02T09:51:16;22.60;58.80
12704;DHT22;6416;52.182;7.650;2024-03-02T09:53:41;22.80;54.70
12704;DHT22;6416;52.182;7.650;2024-03-02T09:56:07;23.00;56.50
12704;DHT22;6416;52.182;7.650;2024-03-02T09:58:32;23.20;59.00
12704;DHT22;6416;52.182;7.650;2024-03-02T10:00:57;23.40;57.30
12704;DHT22;6416;52.182;7.650;2024-03-02T10:03:23;23.70;56.40
12704;DHT22;6416;52.182;7.650;2024-03-02T10:05:48;23.90;56.00
12704;DHT22;6416;52.182;7.650;2024-03-02T10:08:14;24.20;60.10
12704;DHT22;6416;52.182;7.650;2024-03-02T10:10:40;24.40;60.10
12704;DHT22;6416;52.182;7.650;2024-03-02T10:13:06;24.80;58.50
12704;DHT22;6416;52.182;7.650;2024-03-02T10:15:31;25.20;57.60
12704;DHT22;6416;52.182;7.650;2024-03-02T10:17:57;25.50;57.30
12704;DHT22;6416;52.182;7.650;2024-03-02T10:20:23;25.80;56.50
12704;DHT22;6416;52.182;7.650;2024-03-02T10:22:49;26.10;60.30
12704;DHT22;6416;52.182;7.650;2024-03-02T10:25:30;26.30;60.50
12704;DHT22;6416;52.182;7.650;2024-03-02T10:27:57;26.60;62.80
12704;DHT22;6416;52.182;7.650;2024-03-02T10:30:22;26.90;56.70
12704;DHT22;6416;52.182;7.650;2024-03-02T10:32:55;27.10;54.60
12704;DHT22;6416;52.182;7.650;2024-03-02T10:35:21;27.30;59.70
12704;DHT22;6416;52.182;7.650;2024-03-02T10:37:47;27.60;60.80
12704;DHT22;6416;52.182;7.650;2024-03-02T10:40:13;27.80;57.00
12704;DHT22;6416;52.182;7.650;2024-03-02T10:42:38;28.00;53.70
12704;DHT22;6416;52.182;7.650;2024-03-02T10:45:05;28.20;56.00
12704;DHT22;6416;52.182;7.650;2024-03-02T10:47:31;28.20;46.80
12704;DHT22;6416;52.182;7.650;2024-03-02T10:49:57;28.40;53.00
12704;DHT22;6416;52.182;7.650;2024-03-02T10:52:24;28.50;48.70
12704;DHT22;6416;52.182;7.650;2024-03-02T10:54:49;28.40;50.70
12704;DHT22;6416;52.182;7.650;2024-03-02T10:57:14;28.30;52.50
12704;DHT22;6416;52.182;7.650;2024-03-02T11:00:02;28.20;47.40
12704;DHT22;6416;52.182;7.650;2024-03-02T11:02:27;28.20;52.10
12704;DHT22;6416;52.182;7.650;2024-03-02T11:04:55;28.20;54.50
12704;DHT22;6416;52.182;7.650;2024-03-02T11:07:21;28.20;47.90
12704;DHT22;6416;52.182;7.650;2024-03-02T11:09:54;28.30;52.20
12704;DHT22;6416;52.182;7.650;2024-03-02T11:14:47;28.70;52.70
12704;DHT22;6416;52.182;7.650;2024-03-02T11:17:14;28.90;51.10
12704;DHT22;6416;52.182;7.650;2024-03-02T11:19:39;29.10;54.00
12704;DHT22;6416;52.182;7.650;2024-03-02T11:22:05;29.40;47.80
12704;DHT22;6416;52.182;7.650;2024-03-02T11:24:31;29.60;44.80
12704;DHT22;6416;52.182;7.650;2024-03-02T11:26:57;29.80;47.40
12704;DHT22;6416;52.182;7.650;2024-03-02T11:32:03;30.10;53.40
12704;DHT22;6416;52.182;7.650;2024-03-02T11:34:33;30.40;48.30
12704;DHT22;6416;52.182;7.650;2024-03-02T11:36:59;30.70;53.20
12704;DHT22;6416;52.182;7.650;2024-03-02T11:39:26;30.90;49.40
12704;DHT22;6416;52.182;7.650;2024-03-02T11:41:52;31.10;43.60
12704;DHT22;6416;52.182;7.650;2024-03-02T11:44:17;31.20;48.10
12704;DHT22;6416;52.182;7.650;2024-03-02T11:46:53;31.10;46.20
12704;DHT22;6416;52.182;7.650;2024-03-02T11:49:38;31.00;43.60
12704;DHT22;6416;52.182;7.650;2024-03-02T11:52:04;30.80;46.60
12704;DHT22;6416;52.182;7.650;2024-03-02T11:54:30;30.70;46.90
12704;DHT22;6416;52.182;7.650;2024-03-02T11:56:57;30.60;46.70
12704;DHT22;6416;52.182;7.650;2024-03-02T11:59:23;30.40;42.50
12704;DHT22;6416;52.182;7.650;2024-03-02T12:01:49;30.10;37.50
12704;DHT22;6416;52.182;7.650;2024-03-02T12:04:15;29.80;42.70
12704;DHT22;6416;52.182;7.650;2024-03-02T12:06:40;29.60;42.70
12704;DHT22;6416;52.182;7.650;2024-03-02T12:09:06;29.40;43.40
12704;DHT22;6416;52.182;7.650;2024-03-02T12:11:31;29.20;43.80
12704;DHT22;6416;52.182;7.650;2024-03-02T12:13:56;29.10;45.90
12704;DHT22;6416;52.182;7.650;2024-03-02T12:16:25;29.10;47.60
12704;DHT22;6416;52.182;7.650;2024-03-02T12:18:50;29.10;43.60
12704;DHT22;6416;52.182;7.650;2024-03-02T12:21:15;29.20;42.40
12704;DHT22;6416;52.182;7.650;2024-03-02T12:23:41;29.10;44.40
12704;DHT22;6416;52.182;7.650;2024-03-02T12:26:06;29.00;44.30
12704;DHT22;6416;52.182;7.650;2024-03-02T12:28:32;29.10;45.10
12704;DHT22;6416;52.182;7.650;2024-03-02T12:30:58;29.10;43.50
12704;DHT22;6416;52.182;7.650;2024-03-02T12:33:24;29.20;45.80
12704;DHT22;6416;52.182;7.650;2024-03-02T12:35:49;29.20;42.80
12704;DHT22;6416;52.182;7.650;2024-03-02T12:38:15;29.30;45.00
12704;DHT22;6416;52.182;7.650;2024-03-02T12:40:40;29.30;40.90
12704;DHT22;6416;52.182;7.650;2024-03-02T12:43:05;29.30;42.00
12704;DHT22;6416;52.182;7.650;2024-03-02T12:45:31;29.30;41.20
12704;DHT22;6416;52.182;7.650;2024-03-02T12:47:56;29.30;42.20
12704;DHT22;6416;52.182;7.650;2024-03-02T12:50:22;29.30;44.40
12704;DHT22;6416;52.182;7.650;2024-03-02T12:52:51;29.40;43.30
12704;DHT22;6416;52.182;7.650;2024-03-02T12:55:16;29.40;42.40
12704;DHT22;6416;52.182;7.650;2024-03-02T12:57:42;29.40;42.30
12704;DHT22;6416;52.182;7.650;2024-03-02T13:00:07;29.30;40.10
12704;DHT22;6416;52.182;7.650;2024-03-02T13:02:33;29.20;39.80
12704;DHT22;6416;52.182;7.650;2024-03-02T13:04:58;29.00;37.20
12704;DHT22;6416;52.182;7.650;2024-03-02T13:07:24;28.80;40.30
12704;DHT22;6416;52.182;7.650;2024-03-02T13:09:50;28.80;42.00
12704;DHT22;6416;52.182;7.650;2024-03-02T13:12:16;28.70;39.70
12704;DHT22;6416;52.182;7.650;2024-03-02T13:14:41;28.60;39.20
12704;DHT22;6416;52.182;7.650;2024-03-02T13:17:07;28.50;39.90
12704;DHT22;6416;52.182;7.650;2024-03-02T13:19:33;28.40;41.00
12704;DHT22;6416;52.182;7.650;2024-03-02T13:21:59;28.20;40.60
12704;DHT22;6416;52.182;7.650;2024-03-02T13:24:24;28.00;40.30
12704;DHT22;6416;52.182;7.650;2024-03-02T13:26:50;27.90;40.20
12704;DHT22;6416;52.182;7.650;2024-03-02T13:29:15;27.80;40.40
12704;DHT22;6416;52.182;7.650;2024-03-02T13:31:41;27.70;40.80
12704;DHT22;6416;52.182;7.650;2024-03-02T13:34:06;27.50;41.00
12704;DHT22;6416;52.182;7.650;2024-03-02T13:36:31;27.30;41.20
12704;DHT22;6416;52.182;7.650;2024-03-02T13:38:57;27.00;38.00
12704;DHT22;6416;52.182;7.650;2024-03-02T13:41:22;26.80;39.30
12704;DHT22;6416;52.182;7.650;2024-03-02T13:43:48;26.40;38.20
12704;DHT22;6416;52.182;7.650;2024-03-02T13:46:13;26.00;38.70
12704;DHT22;6416;52.182;7.650;2024-03-02T13:48:38;25.60;39.60
12704;DHT22;6416;52.182;7.650;2024-03-02T13:51:04;25.30;40.00
12704;DHT22;6416;52.182;7.650;2024-03-02T13:53:29;24.90;41.20
12704;DHT22;6416;52.182;7.650;2024-03-02T13:55:55;24.70;42.30
12704;DHT22;6416;52.182;7.650;2024-03-02T13:58:20;24.60;42.50
12704;DHT22;6416;52.182;7.650;2024-03-02T14:00:45;24.50;42.90
12704;DHT22;6416;52.182;7.650;2024-03-02T14:03:11;24.30;42.40
12704;DHT22;6416;52.182;7.650;2024-03-02T14:05:37;24.20;41.80
12704;DHT22;6416;52.182;7.650;2024-03-02T14:08:02;24.10;42.60
12704;DHT22;6416;52.182;7.650;2024-03-02T14:10:28;23.90;42.70
12704;DHT22;6416;52.182;7.650;2024-03-02T14:12:53;23.80;42.80
12704;DHT22;6416;52.182;7.650;2024-03-02T14:15:18;23.60;41.60
12704;DHT22;6416;52.182;7.650;2024-03-02T14:17:44;23.50;42.80
12704;DHT22;6416;52.182;7.650;2024-03-02T14:20:09;23.40;43.00
12704;DHT22;6416;52.182;7.650;2024-03-02T14:22:35;23.30;42.90
12704;DHT22;6416;52.182;7.650;2024-03-02T14:25:00;23.20;43.70
12704;DHT22;6416;52.182;7.650;2024-03-02T14:27:26;23.00;43.70
12704;DHT22;6416;52.182;7.650;2024-03-02T14:29:51;22.90;42.40
12704;DHT22;6416;52.182;7.650;2024-03-02T14:32:17;22.70;43.30
12704;DHT22;6416;52.182;7.650;2024-03-02T14:34:42;22.50;43.00
12704;DHT22;6416;52.182;7.650;2024-03-02T14:37:07;22.40;42.70
12704;DHT22;6416;52.182;7.650;2024-03-02T14:39:33;22.20;43.10
12704;DHT22;6416;52.182;7.650;2024-03-02T14:41:58;22.10;43.30
12704;DHT22;6416;52.182;7.650;2024-03-02T14:44:24;21.90;43.20
12704;DHT22;6416;52.182;7.650;2024-03-02T14:46:49;21.80;44.10
12704;DHT22;6416;52.182;7.650;2024-03-02T14:49:14;21.70;44.10
12704;DHT22;6416;52.182;7.650;2024-03-02T14:51:40;21.60;44.00
12704;DHT22;6416;52.182;7.650;2024-03-02T14:54:05;21.40;44.40
12704;DHT22;6416;52.182;7.650;2024-03-02T14:56:31;21.30;44.20
12704;DHT22;6416;52.182;7.650;2024-03-02T14:58:56;21.20;44.00
12704;DHT22;6416;52.182;7.650;2024-03-02T15:01:21;21.10;44.20
12704;DHT22;6416;52.182;7.650;2024-03-02T15:03:47;21.00;44.40
12704;DHT22;6416;52.182;7.650;2024-03-02T15:06:12;21.00;44.70
12704;DHT22;6416;52.182;7.650;2024-03-02T15:08:38;20.90;45.10
12704;DHT22;6416;52.182;7.650;2024-03-02T15:11:03;20.80;44.70
12704;DHT22;6416;52.182;7.650;2024-03-02T15:13:28;20.80;44.80
12704;DHT22;6416;52.182;7.650;2024-03-02T15:15:54;20.70;44.90
12704;DHT22;6416;52.182;7.650;2024-03-02T15:18:19;20.60;45.50
12704;DHT22;6416;52.182;7.650;2024-03-02T15:20:45;20.60;45.00
12704;DHT22;6416;52.182;7.650;2024-03-02T15:23:10;20.60;45.70
12704;DHT22;6416;52.182;7.650;2024-03-02T15:25:35;20.50;45.30
12704;DHT22;6416;52.182;7.650;2024-03-02T15:28:01;20.50;45.40
12704;DHT22;6416;52.182;7.650;2024-03-02T15:30:26;20.50;45.80
12704;DHT22;6416;52.182;7.650;2024-03-02T15:32:52;20.50;45.80
12704;DHT22;6416;52.182;7.650;2024-03-02T15:35:17;20.50;45.90
12704;DHT22;6416;52.182;7.650;2024-03-02T15:37:43;20.50;46.10
12704;DHT22;6416;52.182;7.650;2024-03-02T15:40:08;20.50;47.10
12704;DHT22;6416;52.182;7.650;2024-03-02T15:45:18;20.50;47.10
12704;DHT22;6416;52.182;7.650;2024-03-02T15:47:43;20.50;47.20
12704;DHT22;6416;52.182;7.650;2024-03-02T15:50:09;20.50;47.20
12704;DHT22;6416;52.182;7.650;2024-03-02T15:52:34;20.50;47.40